Time;durP1;ratioP1;P1;durP2;ratioP2;P2;SDS_P1;SDS_P2;PMS_P1;PMS_P2;Temp;Humidity;BMP_temperature;BMP_pressure;BME280_temperature;BME280_humidity;BME280_pressure;Samples;Min_cycle;Max_cycle;Signal;HPM_P1;HPM_P2
2022/09/24 00:00:51;;;;;;;4.47;4.07;;;9.50;99.90;;;;;;5031494;28;20179;-84
2022/09/24 00:03:20;;;;;;;4.83;3.90;;;9.50;99.90;;;;;;5031686;28;20225;-83
2022/09/24 00:05:47;;;;;;;3.90;3.60;;;9.50;99.90;;;;;;5031241;28;20591;-84
2022/09/24 00:08:14;;;;;;;4.40;4.10;;;9.40;99.90;;;;;;5031554;28;20174;-84
2022/09/24 00:10:44;;;;;;;4.67;4.30;;;9.30;99.90;;;;;;5031218;28;20172;-83
2022/09/24 00:13:13;;;;;;;4.30;4.00;;;9.30;99.90;;;;;;5029672;28;20177;-84
2022/09/24 00:15:41;;;;;;;3.97;3.70;;;9.30;99.90;;;;;;5030862;28;20700;-83
2022/09/24 00:18:10;;;;;;;4.13;3.83;;;9.40;99.90;;;;;;5030892;28;20663;-84
2022/09/24 00:20:37;;;;;;;4.53;4.13;;;9.40;99.90;;;;;;5031252;28;20543;-83
2022/09/24 00:23:04;;;;;;;4.37;4.07;;;9.40;99.90;;;;;;5030737;28;20202;-84
2022/09/24 00:28:15;;;;;;;4.07;3.77;;;9.40;99.90;;;;;;5031238;28;20182;-84
2022/09/24 00:30:42;;;;;;;4.33;3.87;;;9.40;99.90;;;;;;5030940;28;20174;-84
2022/09/24 00:33:09;;;;;;;4.07;3.67;;;9.40;99.90;;;;;;5030464;28;20178;-84
2022/09/24 00:35:36;;;;;;;4.20;3.90;;;9.30;99.90;;;;;;5029524;28;20309;-84
2022/09/24 00:38:02;;;;;;;4.53;4.13;;;9.30;99.90;;;;;;5031491;28;20253;-84
2022/09/24 00:40:30;;;;;;;4.63;4.20;;;9.30;99.90;;;;;;5032939;28;20172;-83
2022/09/24 00:42:56;;;;;;;3.67;3.47;;;9.30;99.90;;;;;;5032473;28;20571;-84
2022/09/24 00:45:23;;;;;;;4.03;3.83;;;9.20;99.90;;;;;;5055580;28;20236;-86
2022/09/24 00:47:50;;;;;;;4.23;3.93;;;9.10;99.90;;;;;;5058633;28;20158;-84
2022/09/24 00:50:27;;;;;;;3.60;3.40;;;9.10;99.90;;;;;;5034911;28;20190;-83
2022/09/24 00:53:04;;;;;;;3.77;3.47;;;9.10;99.90;;;;;;5030994;28;20177;-83
2022/09/24 00:55:32;;;;;;;3.70;3.43;;;9.00;99.90;;;;;;5030459;28;20245;-83
2022/09/24 00:58:02;;;;;;;5.00;3.80;;;9.00;99.90;;;;;;5030362;28;20183;-83
2022/09/24 01:00:29;;;;;;;4.37;3.90;;;9.00;99.90;;;;;;5030091;28;20180;-83
2022/09/24 01:03:09;;;;;;;3.80;3.50;;;8.90;99.90;;;;;;5028679;28;20250;-83
2022/09/24 01:05:37;;;;;;;3.73;3.53;;;8.90;99.90;;;;;;5028827;28;20177;-83
2022/09/24 01:08:03;;;;;;;4.23;3.97;;;8.90;99.90;;;;;;5031708;28;20229;-83
2022/09/24 01:10:47;;;;;;;4.30;4.00;;;8.90;99.90;;;;;;5030177;28;20176;-83
2022/09/24 01:13:18;;;;;;;4.00;3.70;;;8.90;99.90;;;;;;5030322;28;20247;-83
2022/09/24 01:16:05;;;;;;;4.53;4.17;;;9.00;99.90;;;;;;5030174;28;20255;-83
2022/09/24 01:18:56;;;;;;;5.50;5.00;;;9.00;99.90;;;;;;5030292;28;20175;-83
2022/09/24 01:21:28;;;;;;;4.50;4.10;;;9.00;99.90;;;;;;5030184;28;20179;-83
2022/09/24 01:24:27;;;;;;;4.57;4.20;;;9.00;99.90;;;;;;5030412;28;20239;-83
2022/09/24 01:27:15;;;;;;;4.50;4.20;;;9.00;99.90;;;;;;5030081;28;20163;-83
2022/09/24 01:30:14;;;;;;;4.60;4.20;;;9.00;99.90;;;;;;5029982;28;20208;-83
2022/09/24 01:32:55;;;;;;;4.40;4.00;;;9.00;99.90;;;;;;5021081;28;20187;-83
2022/09/24 01:35:33;;;;;;;4.60;4.23;;;8.90;99.90;;;;;;5029920;28;20181;-83
2022/09/24 01:38:07;;;;;;;4.40;4.10;;;9.00;99.90;;;;;;5029714;28;20176;-83
2022/09/24 01:40:35;;;;;;;4.30;4.00;;;9.00;99.90;;;;;;5030068;28;20148;-83
2022/09/24 01:43:04;;;;;;;6.57;4.27;;;8.90;99.90;;;;;;5029711;28;20636;-86
2022/09/24 01:45:30;;;;;;;4.60;4.20;;;8.90;99.90;;;;;;5029450;28;20230;-85
2022/09/24 01:47:59;;;;;;;4.07;3.80;;;8.90;99.90;;;;;;5029880;28;20173;-83
2022/09/24 01:50:29;;;;;;;4.30;4.00;;;8.90;99.90;;;;;;5029764;28;20262;-83
2022/09/24 01:53:10;;;;;;;3.80;3.60;;;9.00;99.90;;;;;;5029891;28;20201;-83
2022/09/24 01:55:48;;;;;;;3.90;3.70;;;9.00;99.90;;;;;;5029789;28;20654;-83
2022/09/24 01:58:27;;;;;;;4.37;4.07;;;8.90;99.90;;;;;;5030111;28;20489;-82
2022/09/24 02:01:04;;;;;;;4.13;3.83;;;8.90;99.90;;;;;;5029879;28;20161;-83
2022/09/24 02:03:42;;;;;;;4.47;4.17;;;8.90;99.90;;;;;;5029970;28;20172;-83
2022/09/24 02:06:16;;;;;;;4.60;4.20;;;8.90;99.90;;;;;;5029898;28;20648;-83
2022/09/24 02:08:46;;;;;;;4.57;3.93;;;8.90;99.90;;;;;;5029723;28;20175;-83
2022/09/24 02:11:15;;;;;;;3.83;3.63;;;8.90;99.90;;;;;;5030680;28;20211;-83
2022/09/24 02:13:49;;;;;;;3.70;3.50;;;8.90;99.90;;;;;;5030918;28;20204;-84
2022/09/24 02:16:19;;;;;;;3.67;3.47;;;8.90;99.90;;;;;;5035277;28;20177;-82
2022/09/24 02:18:48;;;;;;;4.17;3.80;;;8.90;99.90;;;;;;5035732;28;20283;-83
2022/09/24 02:21:18;;;;;;;4.30;3.90;;;8.90;99.90;;;;;;5057946;28;20150;-83
2022/09/24 02:23:48;;;;;;;3.70;3.40;;;8.80;99.90;;;;;;5059231;28;20232;-83
2022/09/24 02:26:14;;;;;;;3.97;3.50;;;8.80;99.90;;;;;;5035732;28;20177;-83
2022/09/24 02:28:40;;;;;;;4.33;4.00;;;8.90;99.90;;;;;;5033679;28;20177;-83
2022/09/24 02:31:11;;;;;;;4.47;3.80;;;8.90;99.90;;;;;;5033613;28;20221;-83
2022/09/24 02:36:26;;;;;;;4.13;3.80;;;8.90;99.90;;;;;;5033420;28;20207;-83
2022/09/24 02:38:52;;;;;;;5.17;3.80;;;9.00;99.90;;;;;;5033083;28;20177;-83
2022/09/24 02:41:21;;;;;;;4.13;3.50;;;9.00;99.90;;;;;;5031338;28;20844;-83
2022/09/24 02:43:47;;;;;;;4.00;3.80;;;9.00;99.90;;;;;;5032768;28;20238;-83
2022/09/24 02:46:12;;;;;;;4.60;3.80;;;9.00;99.90;;;;;;5032571;28;20727;-83
2022/09/24 02:48:38;;;;;;;4.10;3.80;;;9.00;99.90;;;;;;5031545;28;20179;-83
2022/09/24 02:51:05;;;;;;;3.47;3.27;;;8.90;99.90;;;;;;5032862;28;20625;-83
2022/09/24 02:53:31;;;;;;;4.00;3.70;;;9.00;99.90;;;;;;5032575;28;20684;-83
2022/09/24 02:56:01;;;;;;;4.03;3.67;;;9.00;99.90;;;;;;5032685;28;20624;-83
2022/09/24 02:58:28;;;;;;;3.53;3.33;;;9.00;99.90;;;;;;5032586;28;20177;-83
2022/09/24 03:00:55;;;;;;;4.10;3.90;;;9.00;99.90;;;;;;5033156;28;20594;-83
2022/09/24 03:03:25;;;;;;;3.80;3.50;;;9.00;99.90;;;;;;5032465;28;20204;-83
2022/09/24 03:05:53;;;;;;;4.03;3.73;;;9.00;99.90;;;;;;5032386;28;20183;-82
2022/09/24 03:08:26;;;;;;;4.10;3.80;;;8.90;99.90;;;;;;5032364;28;20745;-83
2022/09/24 03:10:54;;;;;;;4.00;3.70;;;8.90;99.90;;;;;;5032411;28;20158;-83
2022/09/24 03:13:21;;;;;;;4.00;3.70;;;8.90;99.90;;;;;;5032393;28;20167;-83
2022/09/24 03:15:46;;;;;;;4.90;3.97;;;9.00;99.90;;;;;;5032338;28;20354;-83
2022/09/24 03:18:13;;;;;;;6.33;3.87;;;9.00;99.90;;;;;;5032222;28;20179;-83
2022/09/24 03:20:39;;;;;;;3.80;3.57;;;9.00;99.90;;;;;;5032217;28;20196;-83
2022/09/24 03:23:05;;;;;;;3.87;3.60;;;9.00;99.90;;;;;;5032562;28;20234;-83
2022/09/24 03:25:31;;;;;;;3.97;3.70;;;9.00;99.90;;;;;;5030736;28;20216;-83
2022/09/24 03:27:56;;;;;;;3.67;3.47;;;9.10;99.90;;;;;;5031926;28;20748;-83
2022/09/24 03:33:07;;;;;;;4.10;3.67;;;9.20;99.90;;;;;;5031932;28;20764;-83
2022/09/24 03:35:32;;;;;;;4.10;3.70;;;9.10;99.90;;;;;;5030807;28;20211;-83
2022/09/24 03:37:58;;;;;;;7.27;4.07;;;9.10;99.90;;;;;;5031732;28;20256;-83
2022/09/24 03:40:24;;;;;;;4.03;3.73;;;9.00;99.90;;;;;;5032109;28;20205;-82
2022/09/24 03:42:50;;;;;;;3.83;3.63;;;9.00;99.90;;;;;;5032807;28;20226;-83
2022/09/24 03:45:16;;;;;;;4.27;3.87;;;9.00;99.90;;;;;;5032495;28;20881;-83
2022/09/24 03:47:42;;;;;;;4.53;3.80;;;9.00;99.90;;;;;;5033099;28;20210;-82
2022/09/24 03:50:11;;;;;;;4.00;3.70;;;9.00;99.90;;;;;;5036898;28;20172;-84
2022/09/24 03:52:38;;;;;;;3.83;3.53;;;8.90;99.90;;;;;;5054468;28;20173;-85
2022/09/24 03:55:04;;;;;;;4.07;3.77;;;8.90;99.90;;;;;;5056992;28;20165;-86
2022/09/24 03:57:30;;;;;;;4.20;3.90;;;9.00;99.90;;;;;;5035360;28;20185;-84
2022/09/24 03:59:57;;;;;;;3.97;3.53;;;9.10;99.90;;;;;;5031156;28;20187;-85
2022/09/24 04:02:23;;;;;;;5.57;4.03;;;9.10;99.90;;;;;;5031831;28;20201;-85
2022/09/24 04:04:49;;;;;;;4.57;4.10;;;9.00;99.90;;;;;;5031655;28;20226;-85
2022/09/24 04:07:15;;;;;;;4.10;3.70;;;8.90;99.90;;;;;;5031720;28;20211;-85
2022/09/24 04:09:41;;;;;;;4.30;3.90;;;8.90;99.90;;;;;;5031341;28;20627;-85
2022/09/24 04:12:06;;;;;;;4.20;3.80;;;8.90;99.90;;;;;;5031266;28;20180;-85
2022/09/24 04:14:32;;;;;;;5.47;4.30;;;9.00;99.90;;;;;;5031281;28;20624;-85
2022/09/24 04:16:58;;;;;;;4.37;4.00;;;8.90;99.90;;;;;;5031170;28;20263;-85
2022/09/24 04:19:25;;;;;;;4.97;3.60;;;9.00;99.90;;;;;;5031196;28;20194;-85
2022/09/24 04:21:51;;;;;;;4.00;3.70;;;9.00;99.90;;;;;;5030817;28;20283;-85
2022/09/24 04:24:18;;;;;;;3.80;3.60;;;9.00;99.90;;;;;;5029809;28;20200;-85
2022/09/24 04:26:43;;;;;;;3.80;3.60;;;9.10;99.90;;;;;;5029758;28;20673;-85
2022/09/24 04:29:09;;;;;;;4.93;4.57;;;9.00;99.90;;;;;;5030858;28;20191;-85
2022/09/24 04:31:35;;;;;;;4.93;4.50;;;9.00;99.90;;;;;;5030938;28;20183;-85
2022/09/24 04:34:01;;;;;;;5.07;4.77;;;8.90;99.90;;;;;;5030968;28;20175;-85
2022/09/24 04:36:27;;;;;;;5.10;4.70;;;8.90;99.90;;;;;;5030637;28;20539;-85
2022/09/24 04:38:52;;;;;;;5.30;4.97;;;8.90;99.90;;;;;;5029525;28;20177;-85
2022/09/24 04:41:19;;;;;;;4.33;4.03;;;8.80;99.90;;;;;;5031023;28;20164;-85
2022/09/24 04:43:45;;;;;;;6.13;5.23;;;8.80;99.90;;;;;;5031126;28;20271;-83
2022/09/24 04:46:12;;;;;;;4.80;4.50;;;8.80;99.90;;;;;;5029123;28;20240;-83
2022/09/24 04:48:38;;;;;;;4.80;4.50;;;8.80;99.90;;;;;;5030608;28;20189;-83
2022/09/24 04:51:06;;;;;;;5.20;4.80;;;8.80;99.90;;;;;;5030601;28;20183;-84
2022/09/24 04:53:34;;;;;;;5.57;5.10;;;8.70;99.90;;;;;;5030437;28;20225;-83
2022/09/24 04:56:01;;;;;;;5.00;4.60;;;8.80;99.90;;;;;;5030401;28;20256;-82
2022/09/24 04:58:27;;;;;;;5.00;4.70;;;8.80;99.90;;;;;;5030422;28;20175;-83
2022/09/24 05:00:53;;;;;;;6.93;4.43;;;8.80;99.90;;;;;;5030477;28;20536;-83
2022/09/24 05:03:22;;;;;;;5.10;4.70;;;8.80;99.90;;;;;;5030116;28;20218;-83
2022/09/24 05:05:51;;;;;;;5.20;4.80;;;8.80;99.90;;;;;;5030215;28;20774;-84
2022/09/24 05:08:19;;;;;;;5.67;5.17;;;8.80;99.90;;;;;;5030394;28;20270;-84
2022/09/24 05:10:45;;;;;;;5.07;4.77;;;8.80;99.90;;;;;;5030194;28;20235;-84
2022/09/24 05:13:11;;;;;;;5.20;4.80;;;8.90;99.90;;;;;;5030210;28;20184;-83
2022/09/24 05:15:37;;;;;;;5.57;5.07;;;8.90;99.90;;;;;;5030272;28;20270;-85
2022/09/24 05:18:02;;;;;;;5.60;5.17;;;8.90;99.90;;;;;;5030419;28;20194;-82
2022/09/24 05:20:28;;;;;;;5.40;4.90;;;8.90;99.90;;;;;;5031149;28;20274;-83
2022/09/24 05:22:54;;;;;;;7.43;5.70;;;8.90;99.90;;;;;;5031625;28;20242;-83
2022/09/24 05:25:22;;;;;;;6.40;5.87;;;8.90;99.90;;;;;;5030535;28;20179;-83
2022/09/24 05:27:50;;;;;;;6.23;5.73;;;8.80;99.90;;;;;;5033108;28;20335;-85
2022/09/24 05:30:18;;;;;;;6.93;6.10;;;9.00;99.90;;;;;;5054095;28;20156;-85
2022/09/24 05:32:45;;;;;;;6.23;5.63;;;9.00;99.90;;;;;;5045539;28;20649;-84
2022/09/24 05:35:12;;;;;;;6.53;6.03;;;9.00;99.90;;;;;;5034415;28;20768;-85
2022/09/24 05:37:39;;;;;;;6.27;5.70;;;9.00;99.90;;;;;;5029472;28;20173;-84
2022/09/24 05:42:51;;;;;;;6.33;5.73;;;9.00;99.90;;;;;;5030200;28;20278;-83
2022/09/24 05:45:17;;;;;;;5.93;5.43;;;9.10;99.90;;;;;;5029936;28;20247;-85
2022/09/24 05:47:44;;;;;;;6.37;5.77;;;9.20;99.90;;;;;;5031307;28;20236;-85
2022/09/24 05:50:11;;;;;;;7.03;5.87;;;9.10;99.90;;;;;;5033013;28;20635;-85
2022/09/24 05:52:41;;;;;;;6.20;5.70;;;9.10;99.90;;;;;;5034126;28;20181;-85
2022/09/24 05:55:08;;;;;;;6.70;6.10;;;9.30;99.90;;;;;;5034147;28;20604;-85
2022/09/24 05:57:34;;;;;;;6.70;6.10;;;9.30;99.90;;;;;;5034067;28;20204;-85
2022/09/24 06:00:00;;;;;;;6.70;6.10;;;9.40;99.90;;;;;;5034059;28;20218;-83
2022/09/24 06:02:26;;;;;;;6.80;6.20;;;9.40;99.90;;;;;;5033930;28;20278;-83
2022/09/24 06:04:54;;;;;;;6.80;6.10;;;9.50;99.90;;;;;;5032058;28;20216;-84
2022/09/24 06:07:20;;;;;;;6.40;6.00;;;9.60;99.90;;;;;;5033307;28;20227;-84
2022/09/24 06:09:46;;;;;;;6.93;6.23;;;9.70;99.90;;;;;;5033567;28;20657;-84
2022/09/24 06:12:12;;;;;;;6.37;5.87;;;9.70;99.90;;;;;;5033456;28;20175;-84
2022/09/24 06:14:41;;;;;;;6.77;6.23;;;9.70;99.90;;;;;;5033300;28;20173;-84
2022/09/24 06:17:07;;;;;;;6.37;5.73;;;9.70;99.90;;;;;;5033220;28;20653;-84
2022/09/24 06:19:33;;;;;;;6.20;5.63;;;9.80;99.90;;;;;;5033485;28;20574;-84
2022/09/24 06:21:59;;;;;;;6.13;5.47;;;9.70;99.90;;;;;;5033068;28;20671;-84
2022/09/24 06:24:24;;;;;;;5.77;5.27;;;9.70;99.90;;;;;;5033060;28;20197;-84
2022/09/24 06:26:50;;;;;;;5.77;5.30;;;9.70;99.90;;;;;;5033060;28;20267;-85
2022/09/24 06:29:16;;;;;;;5.70;5.20;;;9.80;99.90;;;;;;5031867;28;20177;-84
2022/09/24 06:31:43;;;;;;;5.57;5.17;;;9.90;99.90;;;;;;5032905;28;20518;-83
2022/09/24 06:34:09;;;;;;;5.17;4.77;;;9.90;99.90;;;;;;5032825;28;20177;-84
2022/09/24 06:36:35;;;;;;;5.43;5.03;;;9.90;99.90;;;;;;5033003;28;20669;-84
2022/09/24 06:39:01;;;;;;;5.93;5.47;;;9.90;99.90;;;;;;5032364;28;20225;-84
2022/09/24 06:41:26;;;;;;;7.67;5.43;;;9.90;99.90;;;;;;5032851;28;20177;-84
2022/09/24 06:43:53;;;;;;;6.00;5.40;;;10.00;99.90;;;;;;5032561;28;20711;-84
2022/09/24 06:46:21;;;;;;;5.43;4.97;;;10.20;99.90;;;;;;5032645;28;20264;-84
2022/09/24 06:48:48;;;;;;;6.30;5.70;;;10.40;99.90;;;;;;5031365;28;20210;-83
2022/09/24 06:51:14;;;;;;;5.90;5.40;;;10.50;99.90;;;;;;5032490;28;20527;-84
2022/09/24 06:53:40;;;;;;;5.40;5.00;;;10.60;99.90;;;;;;5033136;28;20587;-84
2022/09/24 06:56:06;;;;;;;5.83;5.23;;;10.80;99.90;;;;;;5032407;28;20284;-84
2022/09/24 06:58:35;;;;;;;6.30;5.70;;;;;;;;;;5032454;28;20662;-84
2022/09/24 07:01:02;;;;;;;5.97;5.20;;;10.90;99.90;;;;;;5034043;28;20542;-84
2022/09/24 07:03:30;;;;;;;5.77;5.27;;;11.00;99.90;;;;;;5037645;28;20254;-83
2022/09/24 07:06:00;;;;;;;5.67;5.27;;;11.00;99.90;;;;;;5054454;28;20191;-83
2022/09/24 07:08:26;;;;;;;6.50;5.90;;;11.10;99.90;;;;;;5052231;28;20176;-83
2022/09/24 07:10:52;;;;;;;6.00;5.60;;;11.10;99.90;;;;;;5039993;28;20724;-83
2022/09/24 07:13:22;;;;;;;8.13;5.90;;;11.20;99.90;;;;;;5033413;28;20188;-85
2022/09/24 07:15:49;;;;;;;5.63;5.13;;;11.20;99.90;;;;;;5032702;28;20416;-83
2022/09/24 07:18:16;;;;;;;6.90;6.40;;;11.20;99.90;;;;;;5032409;28;20185;-84
2022/09/24 07:20:42;;;;;;;6.13;5.37;;;11.20;99.90;;;;;;5032090;28;20581;-83
2022/09/24 07:23:10;;;;;;;5.77;5.30;;;11.30;99.90;;;;;;5032290;28;20295;-83
2022/09/24 07:25:37;;;;;;;6.07;5.67;;;11.30;99.90;;;;;;5030722;28;20190;-84
2022/09/24 07:28:05;;;;;;;6.33;5.83;;;11.30;99.90;;;;;;5031370;28;20194;-83
2022/09/24 07:30:32;;;;;;;6.93;6.23;;;11.30;99.90;;;;;;5030593;28;20786;-83
2022/09/24 07:32:58;;;;;;;8.73;6.03;;;11.30;99.90;;;;;;5031657;28;20176;-83
2022/09/24 07:35:25;;;;;;;6.17;5.67;;;11.30;99.90;;;;;;5031478;28;20607;-83
2022/09/24 07:38:02;;;;;;;6.40;5.90;;;11.40;99.90;;;;;;5031910;28;20707;-83
2022/09/24 07:40:29;;;;;;;6.63;5.97;;;11.50;99.90;;;;;;5031892;28;20165;-83
2022/09/24 07:42:58;;;;;;;7.00;5.40;;;11.60;99.90;;;;;;5031388;28;20207;-83
2022/09/24 07:45:28;;;;;;;6.30;5.80;;;11.70;99.90;;;;;;5031166;28;20334;-83
2022/09/24 07:48:03;;;;;;;6.63;6.00;;;11.80;99.90;;;;;;5031288;28;20299;-84
2022/09/24 07:50:31;;;;;;;6.03;5.50;;;11.80;99.90;;;;;;5031620;28;20822;-83
2022/09/24 07:52:58;;;;;;;6.10;5.03;;;11.90;99.90;;;;;;5031598;28;20667;-83
2022/09/24 07:55:24;;;;;;;6.67;5.97;;;12.00;99.90;;;;;;5031371;28;20173;-83
2022/09/24 07:57:52;;;;;;;5.53;5.13;;;12.10;99.90;;;;;;5031475;28;20532;-84
2022/09/24 08:00:21;;;;;;;7.87;6.17;;;12.20;99.90;;;;;;5031076;28;20173;-83
2022/09/24 08:02:48;;;;;;;5.27;4.87;;;12.30;99.90;;;;;;5031124;28;20234;-81
2022/09/24 08:05:15;;;;;;;5.43;4.90;;;12.40;99.90;;;;;;5034679;28;20215;-84
2022/09/24 08:07:41;;;;;;;7.23;5.57;;;12.50;99.90;;;;;;5031499;28;20180;-85
2022/09/24 08:10:08;;;;;;;5.27;4.83;;;12.70;99.90;;;;;;5031303;28;20179;-85
2022/09/24 08:12:34;;;;;;;5.27;4.87;;;12.80;99.90;;;;;;5030408;28;20193;-84
2022/09/24 08:14:59;;;;;;;5.30;4.90;;;13.00;99.90;;;;;;5030614;28;20632;-85
2022/09/24 08:17:25;;;;;;;5.47;5.00;;;13.10;99.90;;;;;;5029692;28;20188;-85
2022/09/24 08:19:55;;;;;;;5.23;4.83;;;13.30;99.90;;;;;;5031290;28;20176;-84
2022/09/24 08:22:22;;;;;;;6.70;4.90;;;13.40;99.90;;;;;;5031334;28;20239;-84
2022/09/24 08:24:49;;;;;;;5.67;5.17;;;13.50;99.90;;;;;;5030698;28;20176;-85
2022/09/24 08:27:15;;;;;;;5.47;5.07;;;13.60;99.90;;;;;;5029603;28;20222;-84
2022/09/24 08:29:41;;;;;;;5.33;4.93;;;13.70;99.90;;;;;;5030410;28;20336;-85
2022/09/24 08:32:07;;;;;;;5.63;5.13;;;13.70;99.90;;;;;;5029818;28;20719;-85
2022/09/24 08:34:37;;;;;;;5.53;4.97;;;13.70;99.90;;;;;;5030896;28;20196;-85
2022/09/24 08:37:04;;;;;;;5.13;4.73;;;13.80;99.90;;;;;;5031045;28;20196;-85
2022/09/24 08:39:31;;;;;;;5.37;4.97;;;13.80;99.90;;;;;;5031310;28;20192;-85
2022/09/24 08:42:03;;;;;;;5.87;5.40;;;13.90;99.90;;;;;;5032837;28;20203;-84
2022/09/24 08:47:47;;;;;;;5.77;4.97;;;14.10;99.90;;;;;;5053385;28;20206;-85
2022/09/24 08:50:23;;;;;;;8.67;5.80;;;14.20;99.90;;;;;;5053072;28;20165;-85
2022/09/24 08:52:54;;;;;;;5.37;4.83;;;14.40;99.90;;;;;;5014007;28;20300;-84
2022/09/24 08:55:49;;;;;;;6.10;5.70;;;14.60;99.90;;;;;;5034408;28;20188;-84
2022/09/24 08:58:48;;;;;;;5.80;5.10;;;14.80;99.90;;;;;;5051653;28;20255;-85
2022/09/24 09:01:19;;;;;;;5.93;5.30;;;15.10;99.90;;;;;;5053305;28;20175;-84
2022/09/24 09:04:08;;;;;;;5.50;5.00;;;15.30;99.90;;;;;;5051559;28;20239;-85
2022/09/24 09:06:48;;;;;;;5.60;5.03;;;15.40;99.90;;;;;;5031413;28;20618;-85
2022/09/24 09:09:22;;;;;;;7.20;5.40;;;15.60;99.90;;;;;;5050621;28;20222;-86
2022/09/24 09:11:58;;;;;;;6.90;4.90;;;15.70;99.90;;;;;;5050895;28;20169;-84
2022/09/24 09:14:31;;;;;;;5.60;5.20;;;15.90;99.90;;;;;;5050608;28;20165;-84
2022/09/24 09:17:22;;;;;;;6.10;5.50;;;16.00;99.90;;;;;;5069372;28;20175;-84
2022/09/24 09:19:55;;;;;;;5.20;4.80;;;16.10;99.90;;;;;;5053623;28;20548;-85
2022/09/24 09:22:25;;;;;;;5.40;5.00;;;16.30;99.90;;;;;;5051625;28;20203;-87
2022/09/24 09:24:52;;;;;;;5.50;5.10;;;16.40;99.90;;;;;;5050474;28;20552;-85
2022/09/24 09:27:19;;;;;;;5.87;5.37;;;16.40;99.90;;;;;;5050858;28;20167;-86
2022/09/24 09:29:48;;;;;;;7.33;5.10;;;16.50;99.90;;;;;;5049239;28;20207;-86
2022/09/24 09:32:48;;;;;;;9.50;4.80;;;16.50;99.90;;;;;;5050619;28;20511;-86
2022/09/24 09:35:29;;;;;;;5.53;4.37;;;16.50;99.90;;;;;;5050985;28;20160;-86
2022/09/24 09:38:37;;;;;;;5.10;4.60;;;16.50;99.90;;;;;;5050585;28;20167;-86
2022/09/24 09:41:11;;;;;;;6.30;4.63;;;16.50;99.90;;;;;;5008501;28;20548;-87
2022/09/24 09:43:39;;;;;;;5.00;4.50;;;16.50;99.90;;;;;;4996436;28;20310;-87
2022/09/24 09:46:22;;;;;;;6.67;5.20;;;16.70;99.90;;;;;;4991900;28;20727;-86
2022/09/24 09:48:57;;;;;;;5.57;4.70;;;16.80;99.90;;;;;;5008600;28;20196;-85
2022/09/24 09:51:25;;;;;;;5.40;4.90;;;16.90;99.90;;;;;;5008952;28;20239;-83
2022/09/24 09:53:59;;;;;;;5.53;4.80;;;17.00;99.90;;;;;;5008956;28;20181;-84
2022/09/24 09:56:34;;;;;;;5.10;4.50;;;17.10;99.90;;;;;;5009281;28;20189;-84
2022/09/24 09:59:08;;;;;;;5.13;4.70;;;17.20;99.80;;;;;;5009485;28;20176;-85
2022/09/24 10:01:36;;;;;;;5.50;4.73;;;17.20;99.60;;;;;;5007896;28;20189;-86
2022/09/24 10:04:03;;;;;;;5.10;4.73;;;17.10;99.80;;;;;;4991773;28;20278;-85
2022/09/24 10:06:34;;;;;;;5.30;4.80;;;17.00;99.60;;;;;;5008710;28;20172;-85
2022/09/24 10:09:06;;;;;;;6.13;4.60;;;16.80;99.90;;;;;;5008505;28;20201;-85
2022/09/24 10:11:33;;;;;;;5.37;4.37;;;16.70;99.90;;;;;;4991806;28;20192;-83
2022/09/24 10:14:08;;;;;;;5.27;4.47;;;16.60;99.90;;;;;;5014190;28;20185;-84
2022/09/24 10:16:43;;;;;;;5.17;4.80;;;16.60;99.90;;;;;;5051054;28;20704;-84
2022/09/24 10:19:24;;;;;;;5.00;4.57;;;16.70;99.90;;;;;;5050895;28;20618;-86
2022/09/24 10:21:52;;;;;;;7.40;4.50;;;16.70;99.90;;;;;;5050780;28;20199;-84
2022/09/24 10:24:24;;;;;;;6.03;3.90;;;16.80;99.90;;;;;;5050457;28;20329;-85
2022/09/24 10:26:50;;;;;;;6.10;3.63;;;16.90;99.90;;;;;;5054665;28;20179;-86
2022/09/24 10:32:15;;;;;;;4.17;3.80;;;17.10;99.90;;;;;;5047828;28;20638;-84
2022/09/24 10:34:41;;;;;;;3.80;3.60;;;17.30;99.90;;;;;;5030901;28;20172;-83
2022/09/24 10:37:15;;;;;;;4.23;3.93;;;17.30;99.90;;;;;;5032797;28;20607;-84
2022/09/24 10:39:41;;;;;;;4.20;3.80;;;17.40;99.90;;;;;;5032339;28;20186;-83
2022/09/24 10:42:27;;;;;;;4.33;3.83;;;17.50;99.80;;;;;;5033358;28;20208;-83
2022/09/24 10:44:55;;;;;;;6.27;4.37;;;17.50;99.80;;;;;;5032587;28;20224;-83
2022/09/24 10:47:43;;;;;;;5.77;3.80;;;17.50;99.80;;;;;;5032169;28;20179;-83
2022/09/24 10:50:30;;;;;;;4.20;3.80;;;17.50;99.90;;;;;;5030803;28;20165;-83
2022/09/24 10:53:31;;;;;;;3.67;3.37;;;17.40;99.50;;;;;;5033153;28;20156;-83
2022/09/24 10:56:15;;;;;;;3.90;3.60;;;17.30;99.50;;;;;;5030783;28;20196;-83
2022/09/24 10:58:52;;;;;;;3.50;3.30;;;17.30;99.80;;;;;;5033136;28;20171;-83
2022/09/24 11:01:41;;;;;;;3.97;3.70;;;17.20;99.70;;;;;;5031431;28;20203;-83
2022/09/24 11:04:12;;;;;;;3.80;3.50;;;17.10;99.20;;;;;;5033474;28;20207;-83
2022/09/24 11:07:10;;;;;;;4.30;3.97;;;17.10;99.00;;;;;;5032747;28;20169;-83
2022/09/24 11:09:50;;;;;;;3.20;3.00;;;17.20;99.40;;;;;;5032437;28;20180;-83
2022/09/24 11:12:29;;;;;;;3.20;3.00;;;17.20;99.10;;;;;;5031376;28;20624;-83
2022/09/24 11:15:03;;;;;;;8.70;3.20;;;17.20;98.90;;;;;;5032475;28;20168;-83
2022/09/24 11:17:35;;;;;;;3.40;2.70;;;17.20;98.70;;;;;;5032448;28;20160;-84
2022/09/24 11:20:18;;;;;;;2.97;2.87;;;17.30;98.90;;;;;;5032484;28;20255;-84
2022/09/24 11:23:09;;;;;;;3.60;3.40;;;17.40;98.70;;;;;;5031175;28;20231;-83
2022/09/24 11:26:00;;;;;;;3.57;3.10;;;17.50;98.80;;;;;;5032353;28;20183;-84
2022/09/24 11:28:45;;;;;;;3.30;3.00;;;17.60;98.80;;;;;;5023985;28;20188;-83
2022/09/24 11:31:31;;;;;;;7.83;4.10;;;17.80;98.70;;;;;;5032431;28;20179;-83
2022/09/24 11:34:37;;;;;;;3.77;3.33;;;17.90;98.20;;;;;;5033113;28;20737;-85
2022/09/24 11:37:20;;;;;;;2.70;2.60;;;18.10;98.20;;;;;;5032803;28;20214;-84
2022/09/24 11:40:05;;;;;;;3.00;2.80;;;18.20;97.90;;;;;;5033951;28;20236;-85
2022/09/24 11:43:11;;;;;;;2.60;2.40;;;18.20;97.70;;;;;;5032028;28;20200;-85
2022/09/24 11:45:46;;;;;;;3.10;2.90;;;18.30;97.90;;;;;;5032884;28;20230;-84
2022/09/24 11:48:18;;;;;;;3.00;2.70;;;18.40;97.80;;;;;;5032376;28;20164;-84
2022/09/24 11:50:49;;;;;;;2.97;2.70;;;18.50;97.80;;;;;;5030889;28;20176;-83
2022/09/24 11:53:49;;;;;;;2.83;2.63;;;18.40;97.70;;;;;;5032700;28;20185;-85
2022/09/24 11:56:34;;;;;;;3.83;2.70;;;18.40;97.40;;;;;;5033643;28;20179;-83
2022/09/24 11:59:10;;;;;;;3.10;2.90;;;18.50;97.70;;;;;;5033052;28;20172;-83
2022/09/24 12:01:45;;;;;;;3.53;2.90;;;18.50;96.80;;;;;;5034212;28;20635;-83
2022/09/24 12:04:39;;;;;;;2.77;2.67;;;18.60;96.30;;;;;;5035093;28;20160;-83
2022/09/24 12:07:13;;;;;;;3.10;2.90;;;18.60;96.30;;;;;;5047411;28;20160;-83
2022/09/24 12:09:48;;;;;;;3.23;2.80;;;18.70;96.60;;;;;;5050203;28;20176;-83
2022/09/24 12:12:31;;;;;;;2.53;2.33;;;18.90;96.80;;;;;;5038651;28;20165;-83
2022/09/24 12:15:11;;;;;;;2.80;2.70;;;19.00;96.10;;;;;;5035545;28;20157;-83
2022/09/24 12:17:56;;;;;;;2.50;2.40;;;19.10;96.10;;;;;;5034593;28;20160;-84
2022/09/24 12:20:28;;;;;;;3.57;3.10;;;19.20;95.50;;;;;;5033625;28;20176;-83
2022/09/24 12:23:04;;;;;;;2.53;2.40;;;19.20;95.50;;;;;;5031303;28;20266;-82
2022/09/24 12:25:41;;;;;;;3.30;3.00;;;19.30;95.00;;;;;;5032248;28;20148;-82
2022/09/24 12:28:12;;;;;;;3.20;3.00;;;19.30;95.20;;;;;;5030465;28;20173;-84
2022/09/24 12:33:50;;;;;;;2.80;2.70;;;19.30;95.30;;;;;;5032790;28;20191;-83
2022/09/24 12:36:34;;;;;;;2.80;2.60;;;19.30;95.30;;;;;;5033340;28;20472;-83
2022/09/24 12:39:09;;;;;;;2.67;2.50;;;19.30;95.40;;;;;;5031545;28;20218;-84
2022/09/24 12:41:40;;;;;;;2.90;2.80;;;19.10;95.60;;;;;;5032832;28;20776;-84
2022/09/24 12:44:09;;;;;;;2.87;2.70;;;19.00;96.00;;;;;;5030807;28;20183;-82
2022/09/24 12:46:43;;;;;;;2.70;2.53;;;18.90;96.60;;;;;;5032116;28;20281;-83
2022/09/24 12:49:29;;;;;;;2.73;2.53;;;18.90;96.60;;;;;;5031726;28;20270;-83
2022/09/24 12:51:57;;;;;;;6.00;5.53;;;18.90;96.30;;;;;;5031176;28;20266;-83
2022/09/24 12:54:27;;;;;;;3.10;2.90;;;18.90;96.90;;;;;;5032645;28;20176;-83
2022/09/24 12:57:15;;;;;;;3.50;2.73;;;18.80;96.80;;;;;;5032527;28;20177;-83
2022/09/24 12:59:52;;;;;;;2.90;2.70;;;18.80;95.80;;;;;;5032267;28;20240;-84
2022/09/24 13:02:22;;;;;;;3.37;2.57;;;18.70;95.30;;;;;;5029973;28;20273;-83
2022/09/24 13:05:00;;;;;;;2.30;2.20;;;18.70;95.40;;;;;;5031315;28;20180;-84
2022/09/24 13:07:35;;;;;;;2.60;2.20;;;18.80;95.40;;;;;;5030898;28;20635;-83
2022/09/24 13:10:31;;;;;;;2.43;2.33;;;18.70;95.10;;;;;;5030672;28;20211;-83
2022/09/24 13:12:59;;;;;;;2.70;2.60;;;18.70;95.70;;;;;;5020731;28;20211;-83
2022/09/24 13:15:35;;;;;;;2.40;2.20;;;18.70;96.00;;;;;;5030572;28;20617;-83
2022/09/24 13:18:05;;;;;;;3.20;3.00;;;18.70;96.60;;;;;;5030450;28;20263;-83
2022/09/24 13:20:33;;;;;;;3.23;2.80;;;18.60;96.30;;;;;;5030441;28;20169;-84
2022/09/24 13:23:32;;;;;;;5.87;5.20;;;18.70;96.70;;;;;;5029356;28;20598;-83
2022/09/24 13:26:03;;;;;;;3.07;2.83;;;18.70;97.00;;;;;;5031423;28;20199;-84
2022/09/24 13:28:45;;;;;;;3.10;2.90;;;18.70;97.00;;;;;;5030350;28;20164;-84
2022/09/24 13:31:20;;;;;;;3.50;3.27;;;18.80;96.60;;;;;;5028833;28;20620;-83
2022/09/24 13:33:53;;;;;;;2.97;2.83;;;19.00;96.20;;;;;;5030086;28;20195;-84
2022/09/24 13:36:31;;;;;;;3.37;3.17;;;19.10;96.00;;;;;;5030049;28;20164;-84